Time;durP1;ratioP1;P1;durP2;ratioP2;P2;SDS_P1;SDS_P2;PMS_P1;PMS_P2;Temp;Humidity;BMP_temperature;BMP_pressure;BME280_temperature;BME280_humidity;BME280_pressure;Samples;Min_cycle;Max_cycle;Signal;HPM_P1;HPM_P2
2023/03/30 00:00:59;;;;;;;0.20;0.20;;;8.00;99.90;;;;;;5010749;28;20962;-84
2023/03/30 00:03:37;;;;;;;0.20;0.20;;;7.90;99.90;;;;;;5036522;28;20454;-82
2023/03/30 00:06:04;;;;;;;0.30;0.30;;;7.90;99.90;;;;;;5061083;23;20445;-84
2023/03/30 00:08:32;;;;;;;0.20;0.20;;;7.90;99.90;;;;;;5088377;28;20968;-84
2023/03/30 00:11:06;;;;;;;0.23;0.23;;;8.00;99.90;;;;;;5097129;28;20477;-85
2023/03/30 00:13:41;;;;;;;0.20;0.20;;;7.90;99.90;;;;;;5090749;28;20515;-85
2023/03/30 00:16:10;;;;;;;0.20;0.20;;;7.90;99.90;;;;;;5073498;28;20534;-84
2023/03/30 00:18:35;;;;;;;0.20;0.20;;;7.90;99.90;;;;;;5075515;27;20491;-83
2023/03/30 00:21:02;;;;;;;0.20;0.20;;;7.90;99.90;;;;;;5093618;28;20439;-83
2023/03/30 00:23:30;;;;;;;0.20;0.20;;;7.90;99.90;;;;;;5094412;22;20283;-85
2023/03/30 00:25:55;;;;;;;0.20;0.20;;;7.90;99.90;;;;;;5072381;28;20540;-84
2023/03/30 00:28:22;;;;;;;0.20;0.20;;;7.90;99.90;;;;;;5074776;28;20448;-84
2023/03/30 00:30:48;;;;;;;0.20;0.20;;;7.90;99.90;;;;;;5067616;28;20198;-85
2023/03/30 00:33:14;;;;;;;0.20;0.20;;;7.90;99.90;;;;;;5132104;22;20487;-86
2023/03/30 00:35:40;;;;;;;0.20;0.20;;;7.90;99.90;;;;;;5068011;28;20452;-85
2023/03/30 00:38:05;;;;;;;0.20;0.20;;;7.90;99.90;;;;;;5074088;28;20556;-85
2023/03/30 00:40:33;;;;;;;0.20;0.20;;;7.90;99.90;;;;;;5067951;28;20186;-86
2023/03/30 00:43:04;;;;;;;0.20;0.20;;;7.90;99.90;;;;;;5054223;28;20323;-86
2023/03/30 00:45:30;;;;;;;0.20;0.20;;;7.90;99.90;;;;;;5074856;28;20427;-85
2023/03/30 00:48:06;;;;;;;0.20;0.20;;;7.90;99.90;;;;;;5062380;28;20428;-85
2023/03/30 00:50:43;;;;;;;0.20;0.20;;;7.90;99.90;;;;;;5069876;28;20451;-85
2023/03/30 00:53:20;;;;;;;0.20;0.20;;;7.90;99.90;;;;;;5060854;28;20451;-85
2023/03/30 00:55:48;;;;;;;0.20;0.20;;;7.80;99.90;;;;;;5066522;28;20439;-85
2023/03/30 00:58:15;;;;;;;0.20;0.20;;;7.80;99.90;;;;;;5049807;28;20578;-85
2023/03/30 01:00:42;;;;;;;0.30;0.30;;;7.90;99.90;;;;;;5069247;22;20493;-85
2023/03/30 01:03:23;;;;;;;0.20;0.20;;;7.80;99.90;;;;;;5029868;28;20449;-85
2023/03/30 01:05:50;;;;;;;0.20;0.20;;;7.80;99.90;;;;;;5028765;28;20536;-86
2023/03/30 01:08:17;;;;;;;0.20;0.20;;;7.90;99.90;;;;;;5090988;22;20445;-85
2023/03/30 01:10:43;;;;;;;0.20;0.20;;;7.80;99.90;;;;;;5094357;28;20459;-85
2023/03/30 01:13:10;;;;;;;0.20;0.20;;;7.90;99.90;;;;;;5095015;28;20554;-85
2023/03/30 01:15:43;;;;;;;0.20;0.20;;;7.80;99.90;;;;;;5093862;28;20447;-85
2023/03/30 01:18:29;;;;;;;0.20;0.20;;;7.90;99.90;;;;;;5078051;28;20490;-86
2023/03/30 01:21:12;;;;;;;0.20;0.20;;;7.90;99.90;;;;;;5090199;28;20454;-85
2023/03/30 01:24:17;;;;;;;0.20;0.20;;;7.90;99.90;;;;;;5083686;28;20446;-86
2023/03/30 01:26:48;;;;;;;0.20;0.20;;;7.90;99.90;;;;;;5092546;27;21177;-85
2023/03/30 01:29:44;;;;;;;0.20;0.20;;;7.90;99.90;;;;;;5092835;28;20508;-86
2023/03/30 01:32:48;;;;;;;0.20;0.20;;;7.90;99.90;;;;;;5092390;28;20451;-86
2023/03/30 01:35:52;;;;;;;0.20;0.20;;;7.90;99.90;;;;;;5087731;28;20483;-85
2023/03/30 01:38:54;;;;;;;0.20;0.20;;;7.90;99.90;;;;;;5037476;28;20514;-85
2023/03/30 01:41:54;;;;;;;0.20;0.20;;;7.90;99.90;;;;;;5076870;28;20450;-86
2023/03/30 01:44:22;;;;;;;0.20;0.20;;;7.90;99.90;;;;;;5066788;28;20783;-85
2023/03/30 01:46:56;;;;;;;0.30;0.30;;;7.90;99.90;;;;;;5109955;22;21081;-85
2023/03/30 01:49:35;;;;;;;0.20;0.20;;;7.90;99.90;;;;;;5067003;28;20940;-85
2023/03/30 01:52:12;;;;;;;0.20;0.20;;;7.90;99.90;;;;;;5067962;28;20493;-85
2023/03/30 01:55:03;;;;;;;0.20;0.20;;;7.90;99.90;;;;;;5051729;28;20436;-86
2023/03/30 01:57:59;;;;;;;0.20;0.20;;;7.90;99.90;;;;;;5063804;28;20491;-85
2023/03/30 02:00:26;;;;;;;0.20;0.20;;;7.90;99.90;;;;;;5042296;28;20561;-85
2023/03/30 02:03:14;;;;;;;0.20;0.20;;;7.90;99.90;;;;;;5076612;23;21506;-86
2023/03/30 02:05:42;;;;;;;0.20;0.20;;;7.90;99.90;;;;;;5051028;28;20821;-85
2023/03/30 02:08:13;;;;;;;0.30;0.30;;;7.90;99.90;;;;;;5071949;28;20471;-85
2023/03/30 02:10:41;;;;;;;0.20;0.20;;;7.90;99.90;;;;;;5076075;22;20490;-85
2023/03/30 02:13:07;;;;;;;0.20;0.20;;;7.90;99.90;;;;;;5059561;22;21145;-84
2023/03/30 02:15:44;;;;;;;0.20;0.20;;;7.90;99.90;;;;;;5056945;28;20486;-85
2023/03/30 02:18:10;;;;;;;0.20;0.20;;;7.90;99.90;;;;;;5088874;22;20576;-86
2023/03/30 02:20:36;;;;;;;0.20;0.20;;;7.90;99.90;;;;;;5047623;28;20854;-85
2023/03/30 02:23:04;;;;;;;0.20;0.20;;;7.90;99.90;;;;;;5076991;28;20454;-87
2023/03/30 02:25:31;;;;;;;0.20;0.20;;;8.00;99.90;;;;;;5071740;28;20285;-85
2023/03/30 02:27:56;;;;;;;0.20;0.20;;;7.90;99.90;;;;;;5048873;28;20443;-84
2023/03/30 02:30:23;;;;;;;0.20;0.20;;;;;;;;;;5048482;28;20553;-86
2023/03/30 02:32:53;;;;;;;0.20;0.20;;;7.90;99.90;;;;;;5066054;28;20273;-86
2023/03/30 02:35:48;;;;;;;0.20;0.20;;;8.10;99.90;;;;;;5056614;28;20459;-86
2023/03/30 02:38:46;;;;;;;0.20;0.20;;;8.00;99.90;;;;;;5076989;22;20594;-85
2023/03/30 02:41:14;;;;;;;0.20;0.20;;;8.00;99.90;;;;;;5069272;28;20977;-85
2023/03/30 02:44:06;;;;;;;0.20;0.20;;;8.00;99.90;;;;;;5071870;28;20459;-85
2023/03/30 02:46:57;;;;;;;0.20;0.20;;;8.00;99.90;;;;;;5042428;28;20460;-86
2023/03/30 02:49:33;;;;;;;0.20;0.20;;;8.00;99.90;;;;;;5040168;22;20590;-87
2023/03/30 02:52:39;;;;;;;0.30;0.30;;;8.00;99.90;;;;;;5024944;28;20453;-87
2023/03/30 02:58:02;;;;;;;0.20;0.20;;;8.10;99.90;;;;;;5073424;22;20496;-85
2023/03/30 03:00:52;;;;;;;0.20;0.20;;;8.00;99.90;;;;;;5067785;28;20878;-87
2023/03/30 03:03:32;;;;;;;0.30;0.30;;;8.00;99.90;;;;;;5052206;28;20456;-84
2023/03/30 03:06:01;;;;;;;0.20;0.20;;;8.00;99.90;;;;;;5072563;28;20505;-86
2023/03/30 03:08:48;;;;;;;0.30;0.30;;;8.00;99.90;;;;;;5071275;28;20829;-87
2023/03/30 03:11:14;;;;;;;0.20;0.20;;;8.10;99.90;;;;;;5070521;28;20829;-86
2023/03/30 03:13:40;;;;;;;0.20;0.20;;;8.10;99.90;;;;;;5071810;28;20960;-86
2023/03/30 03:16:09;;;;;;;0.20;0.20;;;8.00;99.90;;;;;;5082600;22;20527;-86
2023/03/30 03:18:38;;;;;;;0.20;0.20;;;8.10;99.90;;;;;;5071702;28;20225;-86
2023/03/30 03:21:05;;;;;;;0.20;0.20;;;8.00;99.90;;;;;;5067654;28;20448;-86
2023/03/30 03:23:31;;;;;;;0.20;0.20;;;8.00;99.90;;;;;;5078888;22;20483;-86
2023/03/30 03:25:56;;;;;;;0.20;0.20;;;8.10;99.90;;;;;;5075378;28;20504;-86
2023/03/30 03:28:22;;;;;;;0.20;0.20;;;8.10;99.90;;;;;;5052629;28;20201;-87
2023/03/30 03:30:48;;;;;;;0.30;0.30;;;8.10;99.90;;;;;;5073033;28;20202;-87
2023/03/30 03:33:14;;;;;;;0.30;0.30;;;8.10;99.90;;;;;;5071988;28;20190;-86
2023/03/30 03:35:52;;;;;;;0.23;0.23;;;8.10;99.90;;;;;;5069182;28;20573;-84
2023/03/30 03:38:20;;;;;;;0.20;0.20;;;8.10;99.90;;;;;;5072303;28;20205;-87
2023/03/30 03:40:49;;;;;;;0.30;0.30;;;8.10;99.90;;;;;;5064917;22;20412;-86
2023/03/30 03:43:15;;;;;;;0.20;0.20;;;8.00;99.90;;;;;;5072748;28;20455;-85
2023/03/30 03:45:40;;;;;;;0.20;0.20;;;8.00;99.90;;;;;;5052619;28;20471;-86
2023/03/30 03:48:17;;;;;;;0.20;0.20;;;8.10;99.90;;;;;;5075541;28;20448;-86
2023/03/30 03:50:42;;;;;;;0.20;0.20;;;8.10;99.90;;;;;;5049988;28;20209;-87
2023/03/30 03:53:10;;;;;;;0.20;0.20;;;8.10;99.90;;;;;;5054490;28;20463;-85
2023/03/30 03:55:35;;;;;;;0.30;0.30;;;8.10;99.90;;;;;;5078287;28;20455;-86
2023/03/30 03:58:02;;;;;;;0.20;0.20;;;8.10;99.90;;;;;;5054220;28;20542;-85
2023/03/30 04:00:28;;;;;;;0.20;0.20;;;8.10;99.90;;;;;;5063722;23;20241;-84
2023/03/30 04:02:57;;;;;;;0.20;0.20;;;8.10;99.90;;;;;;5095165;28;20451;-85
2023/03/30 04:05:23;;;;;;;0.20;0.20;;;8.10;99.90;;;;;;5085813;28;20423;-85
2023/03/30 04:07:52;;;;;;;0.20;0.20;;;8.10;99.90;;;;;;5078236;22;21175;-84
2023/03/30 04:10:18;;;;;;;0.20;0.20;;;8.20;99.90;;;;;;5079517;22;20568;-84
2023/03/30 04:12:44;;;;;;;0.23;0.23;;;8.20;99.90;;;;;;5051436;28;20440;-84
2023/03/30 04:15:10;;;;;;;0.20;0.20;;;8.10;99.90;;;;;;5054492;28;20459;-84
2023/03/30 04:17:36;;;;;;;0.20;0.20;;;8.10;99.90;;;;;;5069903;22;20492;-84
2023/03/30 04:20:03;;;;;;;0.20;0.20;;;8.20;99.90;;;;;;5054793;28;20952;-85
2023/03/30 04:22:34;;;;;;;0.30;0.30;;;8.20;99.90;;;;;;5071313;28;20331;-84
2023/03/30 04:25:00;;;;;;;0.20;0.20;;;8.20;99.90;;;;;;5053065;28;20460;-84
2023/03/30 04:27:27;;;;;;;0.20;0.20;;;8.20;99.90;;;;;;5065311;23;21057;-83
2023/03/30 04:29:56;;;;;;;0.20;0.20;;;8.20;99.90;;;;;;5056038;28;20969;-84
2023/03/30 04:32:33;;;;;;;0.20;0.20;;;8.20;99.90;;;;;;5074775;28;21189;-84
2023/03/30 04:35:04;;;;;;;0.20;0.20;;;8.30;99.90;;;;;;5060332;28;20444;-84
2023/03/30 04:37:30;;;;;;;0.20;0.20;;;8.20;99.90;;;;;;5046934;28;20977;-84
2023/03/30 04:40:15;;;;;;;0.20;0.20;;;8.20;99.90;;;;;;5039776;28;20572;-84
2023/03/30 04:42:41;;;;;;;0.20;0.20;;;8.20;99.90;;;;;;5050140;28;20699;-85
2023/03/30 04:45:07;;;;;;;0.20;0.20;;;8.30;99.90;;;;;;5061132;28;20459;-84
2023/03/30 04:49:58;;;;;;;0.20;0.20;;;8.30;99.90;;;;;;5134078;22;20540;-84
2023/03/30 04:52:24;;;;;;;0.20;0.20;;;8.20;99.90;;;;;;5064545;28;20184;-84
2023/03/30 04:54:50;;;;;;;0.20;0.20;;;8.30;99.90;;;;;;5042555;28;20521;-84
2023/03/30 04:57:16;;;;;;;0.20;0.20;;;8.30;99.90;;;;;;5043836;28;20201;-84
2023/03/30 04:59:42;;;;;;;0.10;0.10;;;8.30;99.90;;;;;;5051728;28;20188;-85
2023/03/30 05:02:09;;;;;;;0.20;0.20;;;8.30;99.90;;;;;;5075023;22;20319;-84
2023/03/30 05:04:35;;;;;;;0.20;0.20;;;8.30;99.90;;;;;;5065034;28;20956;-84
2023/03/30 05:07:01;;;;;;;0.20;0.20;;;8.30;99.90;;;;;;5064293;28;20455;-84
2023/03/30 05:09:36;;;;;;;0.20;0.20;;;8.30;99.90;;;;;;5074356;28;20190;-85
2023/03/30 05:12:03;;;;;;;0.20;0.20;;;8.40;99.90;;;;;;5044383;28;20979;-82
2023/03/30 05:14:28;;;;;;;0.20;0.20;;;8.40;99.90;;;;;;5057587;28;20441;-84
2023/03/30 05:17:10;;;;;;;0.10;0.10;;;8.30;99.90;;;;;;5060747;28;20416;-84
2023/03/30 05:19:46;;;;;;;0.20;0.20;;;8.30;99.90;;;;;;5071649;22;20233;-84
2023/03/30 05:22:11;;;;;;;0.20;0.20;;;8.40;99.90;;;;;;5065760;28;20809;-84
2023/03/30 05:24:37;;;;;;;0.23;0.23;;;8.10;99.90;;;;;;5079655;28;20413;-84
2023/03/30 05:27:03;;;;;;;0.20;0.20;;;8.40;99.90;;;;;;5077444;22;20399;-84
2023/03/30 05:29:29;;;;;;;0.20;0.20;;;8.40;99.90;;;;;;5074615;22;21177;-85
2023/03/30 05:31:55;;;;;;;0.20;0.20;;;8.40;99.90;;;;;;5068295;28;21379;-86
2023/03/30 05:34:20;;;;;;;0.20;0.20;;;8.40;99.90;;;;;;5058309;28;20213;-86
2023/03/30 05:39:12;;;;;;;0.20;0.20;;;8.40;99.90;;;;;;5109726;22;20298;-86
2023/03/30 05:41:37;;;;;;;0.20;0.20;;;8.40;99.90;;;;;;5056098;28;20272;-88
2023/03/30 05:44:03;;;;;;;0.20;0.20;;;8.50;99.90;;;;;;5055839;28;20964;-85
2023/03/30 05:46:29;;;;;;;0.20;0.20;;;8.40;99.90;;;;;;5048224;28;20190;-85
2023/03/30 05:48:55;;;;;;;0.20;0.20;;;8.50;99.90;;;;;;5059055;28;20448;-84
2023/03/30 05:51:20;;;;;;;0.20;0.20;;;8.60;99.90;;;;;;5051512;28;21091;-85
2023/03/30 05:53:49;;;;;;;0.20;0.20;;;8.60;99.90;;;;;;5086845;22;20245;-85
2023/03/30 05:56:15;;;;;;;0.20;0.20;;;8.60;99.90;;;;;;5066082;28;20186;-86
2023/03/30 05:58:41;;;;;;;0.20;0.20;;;8.70;99.90;;;;;;5050345;28;20484;-85
2023/03/30 06:01:08;;;;;;;0.20;0.20;;;8.80;99.90;;;;;;5068186;28;20976;-84
2023/03/30 06:03:33;;;;;;;0.20;0.20;;;8.70;99.90;;;;;;5055547;22;20233;-87
2023/03/30 06:06:01;;;;;;;0.20;0.20;;;8.80;99.90;;;;;;5052045;28;20456;-85
2023/03/30 06:08:27;;;;;;;0.20;0.20;;;8.70;99.90;;;;;;5050095;28;20281;-88
2023/03/30 06:10:54;;;;;;;0.20;0.20;;;8.80;99.90;;;;;;5076654;22;20502;-87
2023/03/30 06:13:20;;;;;;;0.20;0.20;;;8.80;99.90;;;;;;5047332;28;20474;-87
2023/03/30 06:15:46;;;;;;;0.20;0.20;;;8.80;99.90;;;;;;5062317;28;20932;-87
2023/03/30 06:18:12;;;;;;;0.10;0.10;;;8.90;99.90;;;;;;5041825;28;20293;-84
2023/03/30 06:20:37;;;;;;;0.20;0.20;;;8.90;99.90;;;;;;5049059;28;20654;-84
2023/03/30 06:23:06;;;;;;;0.20;0.20;;;9.00;99.90;;;;;;5058517;28;20633;-86
2023/03/30 06:25:35;;;;;;;0.20;0.20;;;9.00;99.90;;;;;;5066677;28;20208;-88
2023/03/30 06:28:07;;;;;;;0.20;0.20;;;9.10;99.90;;;;;;5063805;28;20416;-87
2023/03/30 06:30:33;;;;;;;0.20;0.20;;;9.00;99.90;;;;;;5051331;28;20501;-87
2023/03/30 06:32:58;;;;;;;0.20;0.20;;;9.10;99.90;;;;;;5050308;28;20437;-88
2023/03/30 06:35:24;;;;;;;0.20;0.20;;;9.10;99.90;;;;;;5044495;28;20275;-87
2023/03/30 06:37:50;;;;;;;0.20;0.20;;;9.10;99.90;;;;;;5044197;28;20587;-89
2023/03/30 06:40:19;;;;;;;0.20;0.20;;;9.10;99.90;;;;;;5049974;28;20193;-88
2023/03/30 06:42:44;;;;;;;0.20;0.20;;;9.50;99.90;;;;;;5055812;28;20484;-87
2023/03/30 06:45:13;;;;;;;0.20;0.20;;;9.20;99.90;;;;;;5058851;28;20488;-86
2023/03/30 06:47:41;;;;;;;0.20;0.20;;;9.20;99.90;;;;;;5047942;28;20170;-87
2023/03/30 06:50:07;;;;;;;0.30;0.30;;;9.20;99.90;;;;;;5051566;28;20444;-87
2023/03/30 06:52:36;;;;;;;0.20;0.20;;;9.20;99.90;;;;;;5053806;28;20991;-86
2023/03/30 06:55:03;;;;;;;0.20;0.20;;;9.20;99.90;;;;;;5054021;22;20484;-88
2023/03/30 06:57:38;;;;;;;0.20;0.20;;;9.20;99.90;;;;;;5044099;28;20530;-86
2023/03/30 07:02:29;;;;;;;0.10;0.10;;;9.00;99.90;;;;;;5081817;23;20555;-87
2023/03/30 07:04:54;;;;;;;0.20;0.20;;;9.20;99.90;;;;;;5072750;28;20190;-87
2023/03/30 07:07:20;;;;;;;0.20;0.20;;;9.30;99.90;;;;;;5071951;28;20194;-86
2023/03/30 07:09:45;;;;;;;0.20;0.20;;;9.30;99.90;;;;;;5051161;28;20593;-87
2023/03/30 07:12:11;;;;;;;0.20;0.20;;;9.20;99.90;;;;;;5072681;28;20193;-84
2023/03/30 07:14:46;;;;;;;0.20;0.20;;;9.20;99.90;;;;;;5061500;28;20197;-86
2023/03/30 07:17:12;;;;;;;0.20;0.20;;;9.00;99.90;;;;;;5063114;28;20218;-84
2023/03/30 07:19:43;;;;;;;0.20;0.20;;;9.30;99.90;;;;;;5052494;28;20533;-86
2023/03/30 07:22:09;;;;;;;0.20;0.20;;;9.30;99.90;;;;;;5068718;28;20202;-84
2023/03/30 07:24:36;;;;;;;0.10;0.10;;;9.20;99.90;;;;;;5066340;22;20477;-85
2023/03/30 07:27:02;;;;;;;0.20;0.20;;;9.10;99.90;;;;;;5054399;28;20572;-87
2023/03/30 07:29:28;;;;;;;0.20;0.20;;;9.30;99.90;;;;;;5059572;22;20496;-86
2023/03/30 07:32:00;;;;;;;0.20;0.20;;;9.30;99.90;;;;;;5048420;28;20265;-85
2023/03/30 07:34:28;;;;;;;0.20;0.20;;;9.30;99.90;;;;;;5062776;28;20463;-86
2023/03/30 07:36:54;;;;;;;0.20;0.20;;;9.40;99.90;;;;;;5060049;28;20539;-84
2023/03/30 07:39:20;;;;;;;0.20;0.20;;;9.70;99.90;;;;;;5047068;28;20552;-84
2023/03/30 07:41:46;;;;;;;0.20;0.20;;;10.60;99.90;;;;;;5049372;28;20209;-84
2023/03/30 07:44:11;;;;;;;0.20;0.20;;;9.70;99.90;;;;;;5056299;28;20432;-87
2023/03/30 07:46:37;;;;;;;0.10;0.10;;;10.00;99.90;;;;;;5051186;28;20190;-84
2023/03/30 07:49:15;;;;;;;0.10;0.10;;;10.10;99.90;;;;;;5056177;28;20673;-83
2023/03/30 07:51:40;;;;;;;0.10;0.10;;;10.10;99.90;;;;;;5075046;28;20170;-84
2023/03/30 07:54:10;;;;;;;0.10;0.10;;;10.10;99.90;;;;;;5054142;28;20431;-84
2023/03/30 07:56:38;;;;;;;0.20;0.20;;;10.10;99.90;;;;;;5070832;28;20248;-86
2023/03/30 07:59:04;;;;;;;0.10;0.10;;;10.10;99.90;;;;;;5057381;28;20484;-84
2023/03/30 08:01:31;;;;;;;0.10;0.10;;;10.10;99.90;;;;;;5050388;28;20452;-87
2023/03/30 08:04:00;;;;;;;0.20;0.20;;;10.20;99.90;;;;;;5075779;28;20439;-84
2023/03/30 08:06:26;;;;;;;0.20;0.20;;;10.20;99.90;;;;;;5057719;28;20483;-84
2023/03/30 08:08:52;;;;;;;0.10;0.10;;;10.30;99.90;;;;;;5055383;28;20460;-84
2023/03/30 08:11:18;;;;;;;0.13;0.13;;;10.40;99.90;;;;;;5065364;22;20543;-84
2023/03/30 08:13:44;;;;;;;0.20;0.20;;;10.40;99.90;;;;;;5065306;22;20249;-87
2023/03/30 08:16:10;;;;;;;0.10;0.10;;;10.60;99.90;;;;;;5055601;28;20422;-86
2023/03/30 08:18:36;;;;;;;0.20;0.20;;;10.60;99.90;;;;;;5054279;28;20493;-87
2023/03/30 08:21:03;;;;;;;0.20;0.20;;;10.50;99.90;;;;;;5053581;28;20804;-86
2023/03/30 08:23:28;;;;;;;0.20;0.20;;;10.60;99.90;;;;;;5070249;28;20185;-85
2023/03/30 08:25:58;;;;;;;0.20;0.20;;;10.70;99.90;;;;;;5056912;28;21001;-86
2023/03/30 08:28:24;;;;;;;0.10;0.10;;;10.60;99.90;;;;;;5052236;28;20253;-85
2023/03/30 08:30:50;;;;;;;0.20;0.20;;;10.60;99.90;;;;;;5055583;28;20447;-86
2023/03/30 08:33:16;;;;;;;0.10;0.10;;;10.60;99.90;;;;;;5073303;28;20452;-85
2023/03/30 08:35:45;;;;;;;0.20;0.20;;;10.70;99.90;;;;;;5072462;28;20603;-88
2023/03/30 08:38:14;;;;;;;0.10;0.10;;;10.80;99.90;;;;;;5055691;28;20252;-88
2023/03/30 08:40:42;;;;;;;0.10;0.10;;;10.90;99.90;;;;;;5062841;22;20541;-88
2023/03/30 08:43:32;;;;;;;0.10;0.10;;;11.00;99.90;;;;;;5056651;28;20470;-88
2023/03/30 08:48:36;;;;;;;0.10;0.10;;;11.30;99.90;;;;;;5065172;28;20880;-89
2023/03/30 08:51:14;;;;;;;0.10;0.10;;;11.30;99.90;;;;;;5070868;28;20448;-90
2023/03/30 08:53:40;;;;;;;0.10;0.10;;;11.30;99.90;;;;;;5050054;28;20436;-89
2023/03/30 08:56:46;;;;;;;0.10;0.10;;;11.40;99.90;;;;;;5049091;28;20444;-86
2023/03/30 08:59:47;;;;;;;0.20;0.20;;;11.40;99.90;;;;;;4996855;28;20500;-86
2023/03/30 09:02:29;;;;;;;0.20;0.20;;;11.50;99.90;;;;;;5099004;22;20427;-89
2023/03/30 09:05:00;;;;;;;0.20;0.20;;;;;;;;;;5062022;22;20495;-86
2023/03/30 09:07:37;;;;;;;0.20;0.20;;;11.40;99.90;;;;;;5095145;22;20497;-88
2023/03/30 09:10:08;;;;;;;0.20;0.20;;;11.50;99.90;;;;;;5078420;28;20444;-87
2023/03/30 09:12:46;;;;;;;0.10;0.10;;;11.50;99.90;;;;;;5060149;28;20444;-87
2023/03/30 09:15:20;;;;;;;0.13;0.13;;;11.50;99.90;;;;;;5055618;28;20453;-86
2023/03/30 09:18:20;;;;;;;0.20;0.20;;;11.50;99.90;;;;;;5063954;28;20476;-85
2023/03/30 09:20:49;;;;;;;0.20;0.20;;;11.50;99.90;;;;;;5054683;28;20447;-87
2023/03/30 09:23:16;;;;;;;0.10;0.10;;;;;;;;;;5106188;22;20504;-89
2023/03/30 09:26:03;;;;;;;0.13;0.13;;;;;;;;;;5073353;28;21306;-87
2023/03/30 09:28:33;;;;;;;0.10;0.10;;;11.30;99.90;;;;;;5056175;28;20428;-88
2023/03/30 09:31:07;;;;;;;0.10;0.10;;;;;;;;;;5058861;28;20475;-89
2023/03/30 09:33:42;;;;;;;0.10;0.10;;;11.50;99.90;;;;;;5066643;28;20436;-91
2023/03/30 09:36:23;;;;;;;0.20;0.20;;;;;;;;;;5044897;28;20507;-92
2023/03/30 09:38:51;;;;;;;0.10;0.10;;;12.30;99.90;;;;;;5085798;22;20539;-92
2023/03/30 09:41:44;;;;;;;0.10;0.10;;;12.70;99.90;;;;;;5041828;28;20440;-90
2023/03/30 09:44:26;;;;;;;0.10;0.10;;;12.70;99.90;;;;;;5030071;28;20429;-93
2023/03/30 09:46:57;;;;;;;0.20;0.20;;;12.80;99.90;;;;;;5054866;28;20444;-93
2023/03/30 09:49:28;;;;;;;0.20;0.20;;;12.70;99.90;;;;;;5053877;28;20546;-93
2023/03/30 09:52:03;;;;;;;0.20;0.20;;;12.60;99.90;;;;;;5058029;28;20483;-93
2023/03/30 09:54:37;;;;;;;0.20;0.20;;;12.70;99.90;;;;;;5033457;28;20430;-90
2023/03/30 09:57:03;;;;;;;0.20;0.20;;;12.90;99.90;;;;;;5070573;22;20559;-92
2023/03/30 09:59:46;;;;;;;0.20;0.20;;;12.90;99.90;;;;;;5055654;28;20469;-91
2023/03/30 10:02:11;;;;;;;0.10;0.10;;;13.00;99.90;;;;;;5077730;22;20506;-90
2023/03/30 10:04:52;;;;;;;0.20;0.20;;;13.10;99.90;;;;;;5016043;28;20446;-92
2023/03/30 10:07:25;;;;;;;0.20;0.20;;;13.10;99.90;;;;;;5049228;22;20260;-92
2023/03/30 10:09:58;;;;;;;0.20;0.20;;;13.00;99.90;;;;;;5073752;28;20440;-92
2023/03/30 10:12:25;;;;;;;0.30;0.30;;;12.90;99.90;;;;;;5064291;22;20492;-95
2023/03/30 10:15:01;;;;;;;0.20;0.20;;;13.00;99.90;;;;;;5074523;22;20491;-92
2023/03/30 10:17:27;;;;;;;0.20;0.20;;;13.10;99.90;;;;;;5067206;28;21022;-93
2023/03/30 10:20:15;;;;;;;0.10;0.10;;;13.20;99.90;;;;;;5073040;28;20463;-87
2023/03/30 10:22:50;;;;;;;0.10;0.10;;;13.20;99.90;;;;;;5076845;22;20424;-88
2023/03/30 10:25:39;;;;;;;0.20;0.20;;;13.30;99.90;;;;;;5029891;22;20508;-85
2023/03/30 10:28:34;;;;;;;0.10;0.10;;;13.20;99.90;;;;;;5053973;28;20425;-88
2023/03/30 10:31:03;;;;;;;0.20;0.20;;;13.30;99.90;;;;;;5036244;28;20453;-88
2023/03/30 10:33:30;;;;;;;0.20;0.20;;;13.30;99.90;;;;;;5056743;28;20439;-88
2023/03/30 10:35:59;;;;;;;0.30;0.30;;;13.20;99.90;;;;;;5052441;28;20805;-87
2023/03/30 10:38:31;;;;;;;0.20;0.20;;;13.20;99.90;;;;;;5057656;22;20576;-86
2023/03/30 10:41:06;;;;;;;0.10;0.10;;;13.30;99.90;;;;;;5009518;23;20578;-86
2023/03/30 10:43:33;;;;;;;0.13;0.13;;;13.40;99.90;;;;;;5064169;28;20958;-86
2023/03/30 10:46:26;;;;;;;0.10;0.10;;;13.50;99.90;;;;;;5070080;28;20432;-86
2023/03/30 10:49:29;;;;;;;0.20;0.20;;;13.40;99.90;;;;;;5064185;28;20448;-86
2023/03/30 10:52:11;;;;;;;0.20;0.20;;;13.40;99.90;;;;;;5060002;28;20452;-86
2023/03/30 10:54:46;;;;;;;0.10;0.10;;;;;;;;;;5063164;28;20435;-85
2023/03/30 10:57:23;;;;;;;0.10;0.10;;;;;;;;;;5062881;28;20850;-85
2023/03/30 11:00:01;;;;;;;0.20;0.20;;;;;;;;;;5066525;28;20467;-86
2023/03/30 11:02:39;;;;;;;0.10;0.10;;;;;;;;;;5061740;28;20487;-85
2023/03/30 11:05:08;;;;;;;0.10;0.10;;;14.10;99.90;;;;;;5067121;28;20471;-85
2023/03/30 11:10:28;;;;;;;0.10;0.10;;;14.30;99.90;;;;;;5045494;28;20464;-84
2023/03/30 11:13:01;;;;;;;0.17;0.17;;;14.10;99.90;;;;;;5039236;28;20461;-85
2023/03/30 11:15:42;;;;;;;0.20;0.20;;;13.90;99.90;;;;;;5049851;28;20445;-86
2023/03/30 11:18:14;;;;;;;0.10;0.10;;;13.90;99.90;;;;;;5077618;22;20564;-85
2023/03/30 11:20:46;;;;;;;0.10;0.10;;;14.00;99.90;;;;;;5072379;28;20928;-85
2023/03/30 11:23:26;;;;;;;0.10;0.10;;;13.80;99.90;;;;;;5050496;28;20968;-85
2023/03/30 11:26:07;;;;;;;0.10;0.10;;;13.60;99.90;;;;;;5088808;22;20481;-87
2023/03/30 11:28:46;;;;;;;0.10;0.10;;;;;;;;;;5051876;28;20464;-86
2023/03/30 11:34:01;;;;;;;0.20;0.20;;;11.60;99.90;;;;;;5058191;28;20475;-85
2023/03/30 11:36:36;;;;;;;0.20;0.20;;;11.90;99.90;;;;;;5093581;23;21159;-84
2023/03/30 11:39:17;;;;;;;0.20;0.20;;;11.70;99.90;;;;;;5049113;28;21033;-85
2023/03/30 11:41:54;;;;;;;0.20;0.20;;;11.90;99.90;;;;;;5056884;22;20439;-86
2023/03/30 11:44:20;;;;;;;0.20;0.20;;;12.50;99.90;;;;;;5084478;22;20480;-85
2023/03/30 11:47:27;;;;;;;0.10;0.10;;;12.90;99.90;;;;;;5067586;28;20946;-84
2023/03/30 11:50:32;;;;;;;0.10;0.10;;;13.30;99.90;;;;;;5057791;28;20690;-85
2023/03/30 11:53:19;;;;;;;0.10;0.10;;;13.30;99.90;;;;;;5064671;28;20428;-87
2023/03/30 11:56:18;;;;;;;0.10;0.10;;;12.90;99.90;;;;;;5069571;28;20447;-85
2023/03/30 11:59:15;;;;;;;0.20;0.20;;;12.80;99.90;;;;;;5066439;28;20521;-85
2023/03/30 12:01:53;;;;;;;0.10;0.10;;;12.70;99.90;;;;;;5057738;28;20448;-85
2023/03/30 12:04:27;;;;;;;0.20;0.20;;;12.50;99.90;;;;;;5059326;28;20463;-85
2023/03/30 12:06:59;;;;;;;0.10;0.10;;;12.60;99.90;;;;;;5081089;22;20492;-85
2023/03/30 12:09:46;;;;;;;0.10;0.10;;;12.80;99.90;;;;;;5068487;28;20816;-85
2023/03/30 12:12:15;;;;;;;0.10;0.10;;;13.00;99.90;;;;;;5077200;22;20492;-86
2023/03/30 12:14:56;;;;;;;0.10;0.10;;;12.90;99.90;;;;;;5050507;28;20445;-85
2023/03/30 12:17:33;;;;;;;0.10;0.10;;;12.40;99.90;;;;;;5068335;22;20511;-86
2023/03/30 12:20:14;;;;;;;0.10;0.10;;;12.10;99.90;;;;;;5055940;22;20496;-85
2023/03/30 12:22:54;;;;;;;0.10;0.10;;;11.90;99.90;;;;;;5040922;28;20491;-85
2023/03/30 12:25:33;;;;;;;0.10;0.10;;;11.80;99.90;;;;;;5035850;28;20459;-86
2023/03/30 12:28:22;;;;;;;0.10;0.10;;;12.10;99.90;;;;;;5045749;23;20508;-87
2023/03/30 12:30:58;;;;;;;0.10;0.10;;;12.20;99.90;;;;;;5036214;28;20453;-85
2023/03/30 12:33:33;;;;;;;0.10;0.10;;;12.20;99.90;;;;;;5056298;28;20456;-86
2023/03/30 12:36:03;;;;;;;0.10;0.10;;;12.50;99.90;;;;;;5046269;22;20420;-84
2023/03/30 12:38:45;;;;;;;0.10;0.10;;;12.30;99.90;;;;;;5040131;28;20487;-85
2023/03/30 12:41:14;;;;;;;0.10;0.10;;;12.20;99.90;;;;;;5051351;28;20453;-85
2023/03/30 12:44:08;;;;;;;0.10;0.10;;;12.10;99.90;;;;;;5051510;28;20447;-86
2023/03/30 12:47:11;;;;;;;0.20;0.20;;;12.20;99.90;;;;;;5048598;22;20509;-87
2023/03/30 12:49:51;;;;;;;0.10;0.10;;;12.10;99.90;;;;;;5055170;22;20429;-86
2023/03/30 12:52:26;;;;;;;0.10;0.10;;;12.20;99.90;;;;;;5040162;28;21019;-86
2023/03/30 12:55:02;;;;;;;0.10;0.10;;;12.10;99.90;;;;;;5056384;28;20645;-86
2023/03/30 12:57:43;;;;;;;0.10;0.10;;;12.10;99.90;;;;;;5052162;28;20430;-86
2023/03/30 13:00:46;;;;;;;0.10;0.10;;;12.70;99.90;;;;;;5054978;28;20471;-85
2023/03/30 13:03:35;;;;;;;0.10;0.10;;;13.10;99.90;;;;;;5068136;23;20797;-86
2023/03/30 13:06:02;;;;;;;0.10;0.10;;;13.10;99.90;;;;;;5077287;22;20499;-84
2023/03/30 13:08:40;;;;;;;0.10;0.10;;;13.00;99.90;;;;;;5068027;28;20444;-84
2023/03/30 13:11:15;;;;;;;0.10;0.10;;;12.70;99.90;;;;;;5071073;28;20807;-87
2023/03/30 13:13:46;;;;;;;0.10;0.10;;;12.70;99.90;;;;;;5074897;22;20484;-85
2023/03/30 13:16:12;;;;;;;0.10;0.10;;;12.70;99.90;;;;;;5037174;28;20551;-85
2023/03/30 13:18:47;;;;;;;0.10;0.10;;;12.60;99.90;;;;;;5038765;28;21063;-86
2023/03/30 13:21:21;;;;;;;0.10;0.10;;;13.10;99.90;;;;;;5076813;22;20220;-84
2023/03/30 13:24:05;;;;;;;0.10;0.10;;;;;;;;;;5065902;28;20462;-83
2023/03/30 13:26:41;;;;;;;0.10;0.10;;;14.50;99.90;;;;;;5057709;28;20541;-85
2023/03/30 13:29:10;;;;;;;0.10;0.10;;;14.20;99.90;;;;;;5070573;28;20444;-86
2023/03/30 13:31:45;;;;;;;0.10;0.10;;;13.80;99.90;;;;;;5062666;22;21056;-86
2023/03/30 13:34:31;;;;;;;0.10;0.10;;;;;;;;;;5050607;28;20472;-85
2023/03/30 13:37:05;;;;;;;0.10;0.10;;;;;;;;;;5072479;28;20428;-86
2023/03/30 13:40:13;;;;;;;0.10;0.10;;;13.30;99.90;;;;;;5068287;22;21003;-85
2023/03/30 13:42:48;;;;;;;0.10;0.10;;;13.00;99.90;;;;;;5064815;28;20446;-85
2023/03/30 13:45:21;;;;;;;0.10;0.10;;;13.10;99.90;;;;;;5041183;28;20464;-85
2023/03/30 13:50:33;;;;;;;0.10;0.10;;;14.20;99.90;;;;;;5059247;22;20488;-85